createdAt,value
2017-11-25T00:00:50.127Z,1006.11
2017-11-25T00:01:50.157Z,1006.12
2017-11-25T00:02:50.191Z,1006.09
2017-11-25T00:03:50.525Z,1006.07
2017-11-25T00:04:50.248Z,1006.07
2017-11-25T00:05:50.282Z,1006.05
2017-11-25T00:06:50.311Z,1006.01
2017-11-25T00:07:50.355Z,1006.02
2017-11-25T00:08:50.374Z,1006.00
2017-11-25T00:09:50.418Z,1005.95
2017-11-25T00:10:50.744Z,1005.96
2017-11-25T00:11:50.474Z,1005.97
2017-11-25T00:12:50.493Z,1005.99
2017-11-25T00:13:50.527Z,1005.98
2017-11-25T00:14:50.558Z,1005.98
2017-11-25T00:15:50.588Z,1005.94
2017-11-25T00:16:50.617Z,1005.92
2017-11-25T00:17:51.027Z,1005.90
2017-11-25T00:18:50.681Z,1005.89
2017-11-25T00:19:50.708Z,1005.83
2017-11-25T00:20:51.121Z,1005.81
2017-11-25T00:21:50.804Z,1005.76
2017-11-25T00:22:50.816Z,1005.72
2017-11-25T00:23:50.835Z,1005.67
2017-11-25T00:24:51.193Z,1005.70
2017-11-25T00:25:50.896Z,1005.62
2017-11-25T00:26:50.926Z,1005.61
2017-11-25T00:27:50.959Z,1005.62
2017-11-25T00:28:50.989Z,1005.58
2017-11-25T00:29:51.017Z,1005.56
2017-11-25T00:30:51.051Z,1005.53
2017-11-25T00:31:51.386Z,1005.48
2017-11-25T00:32:51.115Z,1005.47
2017-11-25T00:33:51.142Z,1005.43
2017-11-25T00:34:51.168Z,1005.46
2017-11-25T00:35:51.199Z,1005.52
2017-11-25T00:36:51.234Z,1005.50
2017-11-25T00:37:51.266Z,1005.49
2017-11-25T00:38:51.594Z,1005.46
2017-11-25T00:39:51.335Z,1005.43
2017-11-25T00:40:51.352Z,1005.46
2017-11-25T00:41:51.382Z,1005.41
2017-11-25T00:42:51.412Z,1005.40
2017-11-25T00:43:51.443Z,1005.39
2017-11-25T00:44:51.478Z,1005.42
2017-11-25T00:45:51.809Z,1005.42
2017-11-25T00:46:51.550Z,1005.41
2017-11-25T00:47:51.578Z,1005.46
2017-11-25T00:48:51.605Z,1005.47
2017-11-25T00:49:51.628Z,1005.53
2017-11-25T00:50:51.668Z,1005.56
2017-11-25T00:51:51.688Z,1005.54
2017-11-25T00:52:52.020Z,1005.55
2017-11-25T00:53:51.748Z,1005.58
2017-11-25T00:54:51.798Z,1005.60
2017-11-25T00:55:51.823Z,1005.60
2017-11-25T00:56:51.855Z,1005.59
2017-11-25T00:57:51.878Z,1005.54
2017-11-25T00:58:51.905Z,1005.56
2017-11-25T00:59:52.237Z,1005.57
2017-11-25T01:00:51.982Z,1005.56
2017-11-25T01:01:51.994Z,1005.52
2017-11-25T01:02:52.024Z,1005.50
2017-11-25T01:03:52.058Z,1005.52
2017-11-25T01:04:52.088Z,1005.52
2017-11-25T01:05:52.122Z,1005.51
2017-11-25T01:06:52.447Z,1005.53
2017-11-25T01:07:52.190Z,1005.55
2017-11-25T01:08:52.215Z,1005.55
2017-11-25T01:09:52.239Z,1005.56
2017-11-25T01:10:52.275Z,1005.49
2017-11-25T01:11:52.303Z,1005.48
2017-11-25T01:12:52.632Z,1005.50
2017-11-25T01:13:52.367Z,1005.48
2017-11-25T01:14:52.405Z,1005.51
2017-11-25T01:15:52.421Z,1005.50
2017-11-25T01:16:52.459Z,1005.55
2017-11-25T01:17:52.483Z,1005.60
2017-11-25T01:18:52.816Z,1005.62
2017-11-25T01:19:52.545Z,1005.62
2017-11-25T01:20:52.585Z,1005.63
2017-11-25T01:21:52.615Z,1005.68
2017-11-25T01:22:52.646Z,1005.69
2017-11-25T01:23:52.666Z,1005.69
2017-11-25T01:24:53.001Z,1005.71
2017-11-25T01:25:52.730Z,1005.70
2017-11-25T01:26:52.767Z,1005.70
2017-11-25T01:27:52.787Z,1005.67
2017-11-25T01:28:52.818Z,1005.68
2017-11-25T01:29:52.848Z,1005.65
2017-11-25T01:30:52.879Z,1005.64
2017-11-25T01:31:53.210Z,1005.65
2017-11-25T01:32:52.948Z,1005.67
2017-11-25T01:33:52.980Z,1005.64
2017-11-25T01:34:53.001Z,1005.59
2017-11-25T01:35:53.034Z,1005.61
2017-11-25T01:36:53.082Z,1005.61
2017-11-25T01:37:53.099Z,1005.62
2017-11-25T01:38:53.424Z,1005.61
2017-11-25T01:39:53.162Z,1005.61
2017-11-25T01:40:53.198Z,1005.59
2017-11-25T01:41:53.215Z,1005.55
2017-11-25T01:42:53.244Z,1005.60
2017-11-25T01:43:53.282Z,1005.58
2017-11-25T01:44:53.308Z,1005.57
2017-11-25T01:45:53.637Z,1005.53
2017-11-25T01:46:53.370Z,1005.53
2017-11-25T01:47:53.415Z,1005.47
2017-11-25T01:48:53.432Z,1005.53
2017-11-25T01:49:53.474Z,1005.53
2017-11-25T01:50:53.495Z,1005.53
2017-11-25T01:51:53.521Z,1005.54
2017-11-25T01:52:53.853Z,1005.53
2017-11-25T01:53:53.594Z,1005.47
2017-11-25T01:54:53.612Z,1005.56
2017-11-25T01:55:53.640Z,1005.51
2017-11-25T01:56:53.676Z,1005.46
2017-11-25T01:57:53.716Z,1005.41
2017-11-25T01:58:53.752Z,1005.36
2017-11-25T01:59:54.068Z,1005.35
2017-11-25T02:00:53.809Z,1005.35
2017-11-25T02:01:53.823Z,1005.35
2017-11-25T02:02:53.854Z,1005.29
2017-11-25T02:03:53.891Z,1005.24
2017-11-25T02:04:53.917Z,1005.22
2017-11-25T02:05:53.944Z,1005.14
2017-11-25T02:06:54.277Z,1005.11
2017-11-25T02:07:54.021Z,1005.10
2017-11-25T02:08:54.041Z,1005.02
2017-11-25T02:09:54.086Z,1005.01
2017-11-25T02:10:54.122Z,1004.95
2017-11-25T02:11:54.155Z,1004.95
2017-11-25T02:12:54.172Z,1004.91
2017-11-25T02:13:54.490Z,1004.86
2017-11-25T02:14:54.222Z,1004.88
2017-11-25T02:15:54.255Z,1004.96
2017-11-25T02:16:54.294Z,1004.99
2017-11-25T02:17:54.329Z,1004.96
2017-11-25T02:18:54.340Z,1004.98
2017-11-25T02:19:54.383Z,1004.99
2017-11-25T02:20:54.711Z,1004.99
2017-11-25T02:21:54.431Z,1004.95
2017-11-25T02:22:54.466Z,1004.95
2017-11-25T02:23:54.553Z,1004.91
2017-11-25T02:24:54.522Z,1004.88
2017-11-25T02:25:54.552Z,1004.88
2017-11-25T02:26:54.584Z,1004.86
2017-11-25T02:27:54.917Z,1004.91
2017-11-25T02:28:54.699Z,1004.92
2017-11-25T02:29:54.684Z,1004.97
2017-11-25T02:30:54.705Z,1004.96
2017-11-25T02:31:54.737Z,1004.96
2017-11-25T02:32:54.784Z,1004.92
2017-11-25T02:33:54.802Z,1004.88
2017-11-25T02:34:55.185Z,1004.85
2017-11-25T02:35:54.857Z,1004.89
2017-11-25T02:36:54.914Z,1004.89
2017-11-25T02:37:55.133Z,1004.94
2017-11-25T02:38:54.953Z,1004.95
2017-11-25T02:39:55.009Z,1005.01
2017-11-25T02:40:55.023Z,1004.99
2017-11-25T02:41:55.348Z,1004.99
2017-11-25T02:42:55.120Z,1005.03
2017-11-25T02:43:55.111Z,1004.95
2017-11-25T02:44:55.129Z,1004.87
2017-11-25T02:45:55.167Z,1004.83
2017-11-25T02:46:55.193Z,1004.85
2017-11-25T02:47:55.233Z,1004.84
2017-11-25T02:48:55.601Z,1004.88
2017-11-25T02:49:55.295Z,1004.93
2017-11-25T02:50:55.320Z,1004.92
2017-11-25T02:51:55.356Z,1004.93
2017-11-25T02:52:55.389Z,1004.87
2017-11-25T02:53:55.424Z,1004.86
2017-11-25T02:54:55.436Z,1004.75
2017-11-25T02:55:55.817Z,1004.75
2017-11-25T02:56:55.496Z,1004.72
2017-11-25T02:57:55.541Z,1004.76
2017-11-25T02:58:55.563Z,1004.79
2017-11-25T02:59:55.585Z,1004.84
2017-11-25T03:00:55.681Z,1004.79
2017-11-25T03:01:55.953Z,1004.75
2017-11-25T03:02:55.676Z,1004.77
2017-11-25T03:03:55.714Z,1004.79
2017-11-25T03:04:55.739Z,1004.78
2017-11-25T03:05:55.769Z,1004.79
2017-11-25T03:06:55.814Z,1004.72
2017-11-25T03:07:56.131Z,1004.75
2017-11-25T03:08:55.859Z,1004.77
2017-11-25T03:09:55.911Z,1004.77
2017-11-25T03:10:55.922Z,1004.76
2017-11-25T03:11:56.025Z,1004.75
2017-11-25T03:12:55.981Z,1004.81
2017-11-25T03:13:56.334Z,1004.73
2017-11-25T03:14:56.040Z,1004.79
2017-11-25T03:15:56.081Z,1004.80
2017-11-25T03:16:56.130Z,1004.81
2017-11-25T03:17:56.177Z,1004.82
2017-11-25T03:18:56.163Z,1004.84
2017-11-25T03:19:56.190Z,1004.84
2017-11-25T03:20:56.523Z,1004.90
2017-11-25T03:21:56.258Z,1004.89
2017-11-25T03:22:56.283Z,1004.88
2017-11-25T03:23:56.313Z,1004.95
2017-11-25T03:24:56.342Z,1004.84
2017-11-25T03:25:56.373Z,1004.82
2017-11-25T03:26:56.410Z,1004.79
2017-11-25T03:27:56.741Z,1004.75
2017-11-25T03:28:56.461Z,1004.77
2017-11-25T03:29:56.517Z,1004.76
2017-11-25T03:30:56.523Z,1004.77
2017-11-25T03:31:56.639Z,1004.75
2017-11-25T03:32:56.738Z,1004.72
2017-11-25T03:33:56.640Z,1004.69
2017-11-25T03:34:56.970Z,1004.70
2017-11-25T03:35:56.678Z,1004.78
2017-11-25T03:36:56.717Z,1004.74
2017-11-25T03:37:56.747Z,1004.75
2017-11-25T03:38:56.775Z,1004.72
2017-11-25T03:39:56.800Z,1004.72
2017-11-25T03:40:56.830Z,1004.72
2017-11-25T03:41:57.259Z,1004.68
2017-11-25T03:42:56.886Z,1004.69
2017-11-25T03:43:56.919Z,1004.71
2017-11-25T03:44:56.946Z,1004.69
2017-11-25T03:45:57.017Z,1004.69
2017-11-25T03:46:57.013Z,1004.69
2017-11-25T03:47:57.037Z,1004.67
2017-11-25T03:48:57.407Z,1004.67
2017-11-25T03:49:57.099Z,1004.71
2017-11-25T03:50:57.146Z,1004.69
2017-11-25T03:51:57.209Z,1004.64
2017-11-25T03:52:57.288Z,1004.66
2017-11-25T03:53:57.219Z,1004.64
2017-11-25T03:54:57.249Z,1004.67
2017-11-25T03:55:57.584Z,1004.68
2017-11-25T03:56:57.310Z,1004.71
2017-11-25T03:57:57.339Z,1004.71
2017-11-25T03:58:57.375Z,1004.76
2017-11-25T03:59:57.419Z,1004.80
2017-11-25T04:00:57.431Z,1004.77
2017-11-25T04:01:57.465Z,1004.76
2017-11-25T04:02:57.791Z,1004.71
2017-11-25T04:03:57.521Z,1004.63
2017-11-25T04:04:57.560Z,1004.65
2017-11-25T04:05:57.615Z,1004.62
2017-11-25T04:06:57.611Z,1004.59
2017-11-25T04:07:57.670Z,1004.59
2017-11-25T04:08:57.676Z,1004.60
2017-11-25T04:09:58.029Z,1004.65
2017-11-25T04:10:57.734Z,1004.67
2017-11-25T04:11:57.761Z,1004.64
2017-11-25T04:12:57.795Z,1004.62
2017-11-25T04:13:57.828Z,1004.63
2017-11-25T04:14:57.877Z,1004.62
2017-11-25T04:15:57.885Z,1004.66
2017-11-25T04:16:58.217Z,1004.57
2017-11-25T04:17:57.987Z,1004.57
2017-11-25T04:18:57.973Z,1004.60
2017-11-25T04:19:58.006Z,1004.55
2017-11-25T04:20:58.034Z,1004.61
2017-11-25T04:21:58.065Z,1004.57
2017-11-25T04:22:58.165Z,1004.54
2017-11-25T04:23:58.460Z,1004.55
2017-11-25T04:24:58.153Z,1004.54
2017-11-25T04:25:58.184Z,1004.50
2017-11-25T04:26:58.242Z,1004.50
2017-11-25T04:27:58.245Z,1004.45
2017-11-25T04:28:58.355Z,1004.49
2017-11-25T04:29:58.372Z,1004.46
2017-11-25T04:30:58.644Z,1004.42
2017-11-25T04:31:58.369Z,1004.46
2017-11-25T04:32:58.396Z,1004.44
2017-11-25T04:33:58.429Z,1004.43
2017-11-25T04:34:58.456Z,1004.41
2017-11-25T04:35:58.510Z,1004.38
2017-11-25T04:36:58.520Z,1004.41
2017-11-25T04:37:58.860Z,1004.42
2017-11-25T04:38:58.637Z,1004.36
2017-11-25T04:39:58.610Z,1004.38
2017-11-25T04:40:58.637Z,1004.30
2017-11-25T04:41:58.666Z,1004.28
2017-11-25T04:42:58.699Z,1004.26
2017-11-25T04:43:58.764Z,1004.22
2017-11-25T04:44:59.066Z,1004.21
2017-11-25T04:45:58.790Z,1004.17
2017-11-25T04:46:58.830Z,1004.14
2017-11-25T04:47:58.852Z,1004.15
2017-11-25T04:48:58.942Z,1004.16
2017-11-25T04:49:58.914Z,1004.20
2017-11-25T04:50:58.937Z,1004.24
2017-11-25T04:51:59.270Z,1004.29
2017-11-25T04:52:59.035Z,1004.30
2017-11-25T04:53:59.039Z,1004.30
2017-11-25T04:54:59.059Z,1004.33
2017-11-25T04:55:59.132Z,1004.29
2017-11-25T04:56:59.131Z,1004.33
2017-11-25T04:57:59.454Z,1004.34
2017-11-25T04:58:59.185Z,1004.37
2017-11-25T04:59:59.208Z,1004.42
2017-11-25T05:00:59.245Z,1004.40
2017-11-25T05:01:59.320Z,1004.45
2017-11-25T05:02:59.300Z,1004.45
2017-11-25T05:03:59.704Z,1004.38
2017-11-25T05:04:59.369Z,1004.39
2017-11-25T05:05:59.388Z,1004.38
2017-11-25T05:06:59.423Z,1004.36
2017-11-25T05:07:59.452Z,1004.42
2017-11-25T05:08:59.532Z,1004.39
2017-11-25T05:09:59.815Z,1004.40
2017-11-25T05:10:59.551Z,1004.30
2017-11-25T05:11:59.570Z,1004.31
2017-11-25T05:12:59.599Z,1004.28
2017-11-25T05:13:59.654Z,1004.23
2017-11-25T05:14:59.660Z,1004.26
2017-11-25T05:15:59.693Z,1004.29
2017-11-25T05:17:00.021Z,1004.36
2017-11-25T05:17:59.750Z,1004.39
2017-11-25T05:18:59.789Z,1004.42
2017-11-25T05:19:59.817Z,1004.47
2017-11-25T05:20:59.843Z,1004.51
2017-11-25T05:21:59.904Z,1004.52
2017-11-25T05:22:59.901Z,1004.60
2017-11-25T05:24:00.230Z,1004.58
2017-11-25T05:24:59.959Z,1004.58
2017-11-25T05:25:59.991Z,1004.58
2017-11-25T05:27:00.022Z,1004.52
2017-11-25T05:28:00.053Z,1004.53
2017-11-25T05:29:00.085Z,1004.48
2017-11-25T05:30:00.127Z,1004.49
2017-11-25T05:31:00.441Z,1004.43
2017-11-25T05:32:00.172Z,1004.45
2017-11-25T05:33:00.206Z,1004.50
2017-11-25T05:34:00.233Z,1004.50
2017-11-25T05:35:00.275Z,1004.53
2017-11-25T05:36:00.309Z,1004.55
2017-11-25T05:37:00.343Z,1004.51
2017-11-25T05:38:00.654Z,1004.47
2017-11-25T05:39:00.381Z,1004.50
2017-11-25T05:40:00.413Z,1004.53
2017-11-25T05:41:00.445Z,1004.55
2017-11-25T05:42:00.481Z,1004.54
2017-11-25T05:43:00.502Z,1004.55
2017-11-25T05:44:00.533Z,1004.52
2017-11-25T05:45:00.869Z,1004.57
2017-11-25T05:46:00.596Z,1004.59
2017-11-25T05:47:00.621Z,1004.59
2017-11-25T05:48:00.650Z,1004.59
2017-11-25T05:49:00.705Z,1004.60
2017-11-25T05:50:00.714Z,1004.60
2017-11-25T05:51:00.754Z,1004.63
2017-11-25T05:52:01.072Z,1004.63
2017-11-25T05:53:00.802Z,1004.60
2017-11-25T05:54:00.842Z,1004.64
2017-11-25T05:55:00.862Z,1004.66
2017-11-25T05:56:00.905Z,1004.69
2017-11-25T05:57:00.930Z,1004.71
2017-11-25T05:58:00.951Z,1004.68
2017-11-25T05:59:01.335Z,1004.67
2017-11-25T06:00:01.042Z,1004.68
2017-11-25T06:01:01.044Z,1004.69
2017-11-25T06:02:01.071Z,1004.72
2017-11-25T06:03:01.134Z,1004.80
2017-11-25T06:04:01.131Z,1004.82
2017-11-25T06:05:01.160Z,1004.81
2017-11-25T06:06:01.511Z,1004.82
2017-11-25T06:07:01.270Z,1004.76
2017-11-25T06:08:03.479Z,1004.75
2017-11-25T06:09:01.294Z,1004.74
2017-11-25T06:10:01.313Z,1004.75
2017-11-25T06:11:01.341Z,1004.76
2017-11-25T06:12:01.408Z,1004.70
2017-11-25T06:13:01.823Z,1004.71
2017-11-25T06:14:01.431Z,1004.68
2017-11-25T06:15:01.470Z,1004.67
2017-11-25T06:16:01.498Z,1004.68
2017-11-25T06:17:01.524Z,1004.68
2017-11-25T06:18:01.552Z,1004.69
2017-11-25T06:19:01.585Z,1004.66
2017-11-25T06:20:01.918Z,1004.69
2017-11-25T06:21:01.702Z,1004.65
2017-11-25T06:22:01.670Z,1004.68
2017-11-25T06:23:01.704Z,1004.68
2017-11-25T06:24:01.733Z,1004.68
2017-11-25T06:25:01.871Z,1004.74
2017-11-25T06:26:01.794Z,1004.72
2017-11-25T06:27:02.120Z,1004.76
2017-11-25T06:28:01.899Z,1004.73
2017-11-25T06:29:01.896Z,1004.78
2017-11-25T06:30:01.917Z,1004.80
2017-11-25T06:31:01.956Z,1004.82
2017-11-25T06:32:01.971Z,1004.85
2017-11-25T06:33:02.003Z,1004.90
2017-11-25T06:34:02.334Z,1004.94
2017-11-25T06:35:02.065Z,1004.95
2017-11-25T06:36:02.114Z,1004.97
2017-11-25T06:37:02.142Z,1005.00
2017-11-25T06:38:02.158Z,1005.00
2017-11-25T06:39:02.185Z,1004.98
2017-11-25T06:40:02.213Z,1005.04
2017-11-25T06:41:02.542Z,1005.05
2017-11-25T06:42:02.273Z,1005.05
2017-11-25T06:43:02.305Z,1005.11
2017-11-25T06:44:02.331Z,1005.16
2017-11-25T06:45:02.377Z,1005.15
2017-11-25T06:46:02.390Z,1005.13
2017-11-25T06:47:02.424Z,1005.20
2017-11-25T06:48:02.751Z,1005.17
2017-11-25T06:49:02.483Z,1005.16
2017-11-25T06:50:02.598Z,1005.16
2017-11-25T06:51:02.596Z,1005.13
2017-11-25T06:52:02.569Z,1005.18
2017-11-25T06:53:02.606Z,1005.21
2017-11-25T06:54:02.935Z,1005.22
2017-11-25T06:55:02.665Z,1005.23
2017-11-25T06:56:02.694Z,1005.24
2017-11-25T06:57:02.719Z,1005.26
2017-11-25T06:58:02.754Z,1005.27
2017-11-25T06:59:02.779Z,1005.28
2017-11-25T07:00:03.112Z,1005.27
2017-11-25T07:01:03.093Z,1005.27
2017-11-25T07:02:02.885Z,1005.26
2017-11-25T07:03:02.902Z,1005.28
2017-11-25T07:04:02.951Z,1005.34
2017-11-25T07:05:02.964Z,1005.37
2017-11-25T07:06:03.293Z,1005.40
2017-11-25T07:07:03.018Z,1005.45
2017-11-25T07:08:03.079Z,1005.45
2017-11-25T07:09:03.092Z,1005.46
2017-11-25T07:10:03.108Z,1005.47
2017-11-25T07:11:03.138Z,1005.45
2017-11-25T07:12:03.219Z,1005.46
2017-11-25T07:13:03.534Z,1005.50
2017-11-25T07:14:03.234Z,1005.50
2017-11-25T07:15:03.259Z,1005.51
2017-11-25T07:16:03.304Z,1005.51
2017-11-25T07:17:03.319Z,1005.49
2017-11-25T07:18:03.348Z,1005.45
2017-11-25T07:19:03.377Z,1005.51
2017-11-25T07:20:03.753Z,1005.53
2017-11-25T07:21:03.437Z,1005.51
2017-11-25T07:22:03.483Z,1005.50
2017-11-25T07:23:03.502Z,1005.53
2017-11-25T07:24:03.536Z,1005.49
2017-11-25T07:25:03.557Z,1005.50
2017-11-25T07:26:03.586Z,1005.54
2017-11-25T07:27:03.928Z,1005.54
2017-11-25T07:28:03.649Z,1005.54
2017-11-25T07:29:03.680Z,1005.56
2017-11-25T07:30:03.715Z,1005.58
2017-11-25T07:31:03.755Z,1005.55
2017-11-25T07:32:03.770Z,1005.58
2017-11-25T07:33:03.799Z,1005.60
2017-11-25T07:34:04.134Z,1005.60
2017-11-25T07:35:03.859Z,1005.58
2017-11-25T07:36:03.892Z,1005.63
2017-11-25T07:37:03.920Z,1005.65
2017-11-25T07:38:03.952Z,1005.70
2017-11-25T07:39:03.982Z,1005.70
2017-11-25T07:40:04.015Z,1005.74
2017-11-25T07:41:04.338Z,1005.73
2017-11-25T07:42:04.069Z,1005.78
2017-11-25T07:43:04.104Z,1005.78
2017-11-25T07:44:04.144Z,1005.80
2017-11-25T07:45:04.168Z,1005.82
2017-11-25T07:46:04.189Z,1005.81
2017-11-25T07:47:04.219Z,1005.85
2017-11-25T07:48:04.601Z,1005.89
2017-11-25T07:49:04.281Z,1005.97
2017-11-25T07:50:04.307Z,1005.98
2017-11-25T07:51:04.337Z,1005.97
2017-11-25T07:52:04.373Z,1006.06
2017-11-25T07:53:04.424Z,1006.02
2017-11-25T07:54:04.431Z,1006.08
2017-11-25T07:55:04.758Z,1006.10
2017-11-25T07:56:04.487Z,1006.11
2017-11-25T07:57:04.518Z,1006.10
2017-11-25T07:58:04.548Z,1006.13
2017-11-25T07:59:04.578Z,1006.16
2017-11-25T08:00:04.611Z,1006.16
2017-11-25T08:01:05.244Z,1006.18
2017-11-25T08:02:04.974Z,1006.19
2017-11-25T08:03:04.714Z,1006.21
2017-11-25T08:04:04.766Z,1006.22
2017-11-25T08:05:04.757Z,1006.27
2017-11-25T08:06:04.802Z,1006.29
2017-11-25T08:07:04.814Z,1006.23
2017-11-25T08:08:04.857Z,1006.28
2017-11-25T08:09:05.293Z,1006.29
2017-11-25T08:10:04.922Z,1006.32
2017-11-25T08:11:04.942Z,1006.32
2017-11-25T08:12:04.966Z,1006.36
2017-11-25T08:13:04.996Z,1006.32
2017-11-25T08:14:05.026Z,1006.34
2017-11-25T08:15:05.080Z,1006.35
2017-11-25T08:16:05.385Z,1006.35
2017-11-25T08:17:05.114Z,1006.37
2017-11-25T08:18:05.147Z,1006.39
2017-11-25T08:19:05.173Z,1006.39
2017-11-25T08:20:05.207Z,1006.35
2017-11-25T08:21:05.236Z,1006.36
2017-11-25T08:22:05.266Z,1006.34
2017-11-25T08:23:05.605Z,1006.38
2017-11-25T08:24:05.340Z,1006.38
2017-11-25T08:25:05.354Z,1006.38
2017-11-25T08:26:05.386Z,1006.37
2017-11-25T08:27:05.425Z,1006.40
2017-11-25T08:28:05.450Z,1006.40
2017-11-25T08:29:05.478Z,1006.44
2017-11-25T08:30:05.804Z,1006.41
2017-11-25T08:31:05.535Z,1006.43
2017-11-25T08:32:05.580Z,1006.47
2017-11-25T08:33:05.604Z,1006.49
2017-11-25T08:34:05.634Z,1006.50
2017-11-25T08:35:05.678Z,1006.55
2017-11-25T08:36:05.697Z,1006.55
2017-11-25T08:37:06.033Z,1006.55
2017-11-25T08:38:05.756Z,1006.55
2017-11-25T08:39:05.785Z,1006.59
2017-11-25T08:40:05.813Z,1006.61
2017-11-25T08:41:05.851Z,1006.61
2017-11-25T08:42:05.882Z,1006.62
2017-11-25T08:43:05.896Z,1006.67
2017-11-25T08:44:06.224Z,1006.65
2017-11-25T08:45:05.959Z,1006.65
2017-11-25T08:46:05.987Z,1006.65
2017-11-25T08:47:06.033Z,1006.63
2017-11-25T08:48:06.046Z,1006.67
2017-11-25T08:49:06.110Z,1006.66
2017-11-25T08:50:06.116Z,1006.69
2017-11-25T08:51:06.433Z,1006.67
2017-11-25T08:52:06.163Z,1006.69
2017-11-25T08:53:06.198Z,1006.70
2017-11-25T08:54:06.227Z,1006.73
2017-11-25T08:55:06.253Z,1006.75
2017-11-25T08:56:06.298Z,1006.73
2017-11-25T08:57:06.337Z,1006.76
2017-11-25T08:58:06.642Z,1006.77
2017-11-25T08:59:06.381Z,1006.77
2017-11-25T09:00:06.405Z,1006.76
2017-11-25T09:01:06.432Z,1006.76
2017-11-25T09:02:06.465Z,1006.80
2017-11-25T09:03:06.500Z,1006.79
2017-11-25T09:04:06.521Z,1006.84
2017-11-25T09:05:06.852Z,1006.82
2017-11-25T09:06:06.585Z,1006.80
2017-11-25T09:07:06.613Z,1006.81
2017-11-25T09:08:06.647Z,1006.83
2017-11-25T09:09:06.671Z,1006.85
2017-11-25T09:10:06.702Z,1006.85
2017-11-25T09:11:06.735Z,1006.84
2017-11-25T09:12:07.061Z,1006.86
2017-11-25T09:14:06.825Z,1006.89
2017-11-25T09:15:06.856Z,1006.86
2017-11-25T09:16:06.888Z,1006.87
2017-11-25T09:17:06.909Z,1006.89
2017-11-25T09:18:07.241Z,1006.93
2017-11-25T09:19:06.972Z,1006.94
2017-11-25T09:20:07.000Z,1006.91
2017-11-25T09:21:07.036Z,1006.87
2017-11-25T09:22:07.059Z,1006.92
2017-11-25T09:23:07.089Z,1006.87
2017-11-25T09:24:07.448Z,1006.91
2017-11-25T09:25:07.176Z,1006.89
2017-11-25T09:26:07.187Z,1006.91
2017-11-25T09:27:07.210Z,1006.92
2017-11-25T09:28:07.240Z,1006.95
2017-11-25T09:29:07.272Z,1006.97
2017-11-25T09:30:07.611Z,1006.94
2017-11-25T09:31:07.372Z,1006.92
2017-11-25T09:32:07.369Z,1006.92
2017-11-25T09:33:07.417Z,1006.91
2017-11-25T09:34:07.423Z,1006.89
2017-11-25T09:35:07.459Z,1006.94
2017-11-25T09:36:07.483Z,1006.91
2017-11-25T09:37:07.815Z,1006.90
2017-11-25T09:38:07.538Z,1006.91
2017-11-25T09:39:07.569Z,1006.92
2017-11-25T09:40:07.600Z,1006.93
2017-11-25T09:41:07.628Z,1006.94
2017-11-25T09:42:07.658Z,1006.95
2017-11-25T09:43:07.693Z,1006.97
2017-11-25T09:44:08.019Z,1006.93
2017-11-25T09:45:07.760Z,1007.01
2017-11-25T09:46:07.790Z,1006.98
2017-11-25T09:47:07.820Z,1007.03
2017-11-25T09:48:07.842Z,1007.01
2017-11-25T09:49:07.869Z,1007.04
2017-11-25T09:50:07.915Z,1007.02
2017-11-25T09:51:08.231Z,1007.06
2017-11-25T09:52:07.975Z,1007.06
2017-11-25T09:53:08.000Z,1007.09
2017-11-25T09:54:08.023Z,1007.09
2017-11-25T09:55:08.050Z,1007.07
2017-11-25T09:56:08.089Z,1007.08
2017-11-25T09:57:08.113Z,1007.12
2017-11-25T09:58:08.444Z,1007.13
2017-11-25T09:59:08.170Z,1007.13
2017-11-25T10:00:08.212Z,1007.12
2017-11-25T10:01:08.230Z,1007.16
2017-11-25T10:02:08.260Z,1007.19
2017-11-25T10:03:08.299Z,1007.17
2017-11-25T10:04:08.331Z,1007.16
2017-11-25T10:05:08.664Z,1007.19
2017-11-25T10:06:08.386Z,1007.19
2017-11-25T10:07:08.425Z,1007.21
2017-11-25T10:08:08.441Z,1007.19
2017-11-25T10:09:08.473Z,1007.22
2017-11-25T10:10:08.502Z,1007.21
2017-11-25T10:11:08.544Z,1007.20
2017-11-25T10:12:08.872Z,1007.21
2017-11-25T10:13:08.599Z,1007.22
2017-11-25T10:14:08.624Z,1007.20
2017-11-25T10:15:08.654Z,1007.23
2017-11-25T10:16:08.699Z,1007.23
2017-11-25T10:17:08.715Z,1007.22
2017-11-25T10:18:08.757Z,1007.21
2017-11-25T10:19:09.127Z,1007.27
2017-11-25T10:20:08.809Z,1007.26
2017-11-25T10:21:08.836Z,1007.20
2017-11-25T10:22:08.877Z,1007.23
2017-11-25T10:23:08.894Z,1007.24
2017-11-25T10:24:08.933Z,1007.23
2017-11-25T10:25:08.955Z,1007.20
2017-11-25T10:26:09.284Z,1007.25
2017-11-25T10:27:09.027Z,1007.22
2017-11-25T10:28:09.049Z,1007.25
2017-11-25T10:29:09.076Z,1007.27
2017-11-25T10:30:09.108Z,1007.26
2017-11-25T10:31:09.182Z,1007.25
2017-11-25T10:32:09.168Z,1007.27
2017-11-25T10:33:09.529Z,1007.31
2017-11-25T10:34:09.226Z,1007.31
2017-11-25T10:35:09.264Z,1007.23
2017-11-25T10:36:09.295Z,1007.30
2017-11-25T10:37:09.345Z,1007.24
2017-11-25T10:38:09.349Z,1007.29
2017-11-25T10:39:09.378Z,1007.29
2017-11-25T10:40:09.723Z,1007.34
2017-11-25T10:41:09.435Z,1007.31
2017-11-25T10:42:09.501Z,1007.32
2017-11-25T10:43:09.510Z,1007.35
2017-11-25T10:44:09.529Z,1007.36
2017-11-25T10:45:09.559Z,1007.38
2017-11-25T10:46:09.589Z,1007.39
2017-11-25T10:47:09.927Z,1007.40
2017-11-25T10:48:09.660Z,1007.41
2017-11-25T10:49:09.677Z,1007.44
2017-11-25T10:50:09.713Z,1007.44
2017-11-25T10:51:09.742Z,1007.42
2017-11-25T10:52:09.805Z,1007.41
2017-11-25T10:53:09.798Z,1007.40
2017-11-25T10:54:10.127Z,1007.40
2017-11-25T10:55:09.858Z,1007.39
2017-11-25T10:56:09.891Z,1007.44
2017-11-25T10:57:09.920Z,1007.41
2017-11-25T10:58:09.951Z,1007.46
2017-11-25T10:59:09.990Z,1007.44
2017-11-25T11:00:10.027Z,1007.46
2017-11-25T11:01:10.353Z,1007.46
2017-11-25T11:02:10.071Z,1007.48
2017-11-25T11:03:10.108Z,1007.47
2017-11-25T11:04:10.177Z,1007.50
2017-11-25T11:05:10.167Z,1007.47
2017-11-25T11:06:10.195Z,1007.49
2017-11-25T11:07:10.219Z,1007.52
2017-11-25T11:08:10.623Z,1007.49
2017-11-25T11:09:10.284Z,1007.52
2017-11-25T11:10:10.310Z,1007.49
2017-11-25T11:11:10.342Z,1007.48
2017-11-25T11:12:10.373Z,1007.49
2017-11-25T11:13:10.405Z,1007.50
2017-11-25T11:14:10.732Z,1007.51
2017-11-25T11:15:10.462Z,1007.50
2017-11-25T11:16:10.493Z,1007.51
2017-11-25T11:17:10.533Z,1007.54
2017-11-25T11:18:10.559Z,1007.54
2017-11-25T11:19:10.617Z,1007.51
2017-11-25T11:20:10.916Z,1007.53
2017-11-25T11:21:10.664Z,1007.52
2017-11-25T11:22:10.671Z,1007.55
2017-11-25T11:23:10.709Z,1007.54
2017-11-25T11:24:10.736Z,1007.53
2017-11-25T11:25:10.764Z,1007.56
2017-11-25T11:26:11.095Z,1007.55
2017-11-25T11:27:10.826Z,1007.58
2017-11-25T11:28:10.858Z,1007.60
2017-11-25T11:29:10.892Z,1007.62
2017-11-25T11:30:10.914Z,1007.61
2017-11-25T11:31:10.949Z,1007.61
2017-11-25T11:32:10.977Z,1007.62
2017-11-25T11:33:11.310Z,1007.63
2017-11-25T11:34:11.038Z,1007.65
2017-11-25T11:35:11.068Z,1007.66
2017-11-25T11:36:11.099Z,1007.72
2017-11-25T11:37:11.136Z,1007.73
2017-11-25T11:38:11.157Z,1007.74
2017-11-25T11:39:11.189Z,1007.78
2017-11-25T11:40:11.521Z,1007.76
2017-11-25T11:41:11.250Z,1007.82
2017-11-25T11:42:11.279Z,1007.77
2017-11-25T11:43:11.315Z,1007.79
2017-11-25T11:44:11.355Z,1007.80
2017-11-25T11:45:11.372Z,1007.78
2017-11-25T11:46:11.405Z,1007.78
2017-11-25T11:47:11.733Z,1007.75
2017-11-25T11:48:11.462Z,1007.77
2017-11-25T11:49:11.492Z,1007.71
2017-11-25T11:50:11.528Z,1007.75
2017-11-25T11:51:11.561Z,1007.73
2017-11-25T11:52:11.583Z,1007.74
2017-11-25T11:53:11.613Z,1007.72
2017-11-25T11:54:11.944Z,1007.76
2017-11-25T11:55:11.676Z,1007.80
2017-11-25T11:56:11.715Z,1007.83
2017-11-25T11:57:11.737Z,1007.79
2017-11-25T11:58:11.766Z,1007.84
2017-11-25T11:59:11.807Z,1007.83
2017-11-25T12:00:11.831Z,1007.84
2017-11-25T12:01:12.158Z,1007.87
2017-11-25T12:02:11.888Z,1007.87
2017-11-25T12:03:11.916Z,1007.90
2017-11-25T12:04:11.959Z,1007.89
2017-11-25T12:05:11.980Z,1007.92
2017-11-25T12:06:12.021Z,1007.90
2017-11-25T12:07:12.040Z,1007.94